sensor_id;sensor_type;location;lat;lon;timestamp;temperature;humidity
45319;DHT22;31057;48.498;32.260;2023-02-28T00:01:48;0.30;99.90
45319;DHT22;31057;48.498;32.260;2023-02-28T00:03:51;0.30;99.90
45319;DHT22;31057;48.498;32.260;2023-02-28T00:05:53;0.10;99.90
45319;DHT22;31057;48.498;32.260;2023-02-28T00:07:56;0.00;99.90
45319;DHT22;31057;48.498;32.260;2023-02-28T00:09:58;0.00;99.90
45319;DHT22;31057;48.498;32.260;2023-02-28T00:12:00;0.00;99.90
45319;DHT22;31057;48.498;32.260;2023-02-28T00:14:05;0.00;99.90
45319;DHT22;31057;48.498;32.260;2023-02-28T00:16:07;-0.10;99.90
45319;DHT22;31057;48.498;32.260;2023-02-28T00:18:10;-0.10;99.90
45319;DHT22;31057;48.498;32.260;2023-02-28T00:20:13;-0.10;99.90
45319;DHT22;31057;48.498;32.260;2023-02-28T00:22:18;-0.10;99.90
45319;DHT22;31057;48.498;32.260;2023-02-28T00:24:20;-0.10;99.90
45319;DHT22;31057;48.498;32.260;2023-02-28T00:26:22;-0.10;99.90
45319;DHT22;31057;48.498;32.260;2023-02-28T00:28:24;-0.10;99.90
45319;DHT22;31057;48.498;32.260;2023-02-28T00:30:26;-0.10;99.90
45319;DHT22;31057;48.498;32.260;2023-02-28T00:32:28;-0.20;99.90
45319;DHT22;31057;48.498;32.260;2023-02-28T00:34:29;-0.10;99.90
45319;DHT22;31057;48.498;32.260;2023-02-28T00:36:31;-0.20;99.90
45319;DHT22;31057;48.498;32.260;2023-02-28T00:38:33;-0.20;99.90
45319;DHT22;31057;48.498;32.260;2023-02-28T00:40:35;-0.20;99.90
45319;DHT22;31057;48.498;32.260;2023-02-28T00:42:37;-0.20;99.90
45319;DHT22;31057;48.498;32.260;2023-02-28T00:44:39;-0.20;99.90
45319;DHT22;31057;48.498;32.260;2023-02-28T00:46:40;-0.20;99.90
45319;DHT22;31057;48.498;32.260;2023-02-28T00:48:42;-0.30;99.90
45319;DHT22;31057;48.498;32.260;2023-02-28T00:50:45;-0.30;99.90
45319;DHT22;31057;48.498;32.260;2023-02-28T00:52:49;-0.30;99.90
45319;DHT22;31057;48.498;32.260;2023-02-28T00:54:51;-0.30;99.90
45319;DHT22;31057;48.498;32.260;2023-02-28T00:56:54;-0.30;99.90
45319;DHT22;31057;48.498;32.260;2023-02-28T00:58:56;-0.30;99.90
45319;DHT22;31057;48.498;32.260;2023-02-28T01:00:58;-0.30;99.90
45319;DHT22;31057;48.498;32.260;2023-02-28T01:02:59;-0.30;99.90
45319;DHT22;31057;48.498;32.260;2023-02-28T01:05:01;-0.30;99.90
45319;DHT22;31057;48.498;32.260;2023-02-28T01:07:03;-0.30;99.90
45319;DHT22;31057;48.498;32.260;2023-02-28T01:09:05;-0.30;99.90
45319;DHT22;31057;48.498;32.260;2023-02-28T01:11:11;-0.30;99.90
45319;DHT22;31057;48.498;32.260;2023-02-28T01:13:13;-0.30;99.90
45319;DHT22;31057;48.498;32.260;2023-02-28T01:15:15;-0.30;99.90
45319;DHT22;31057;48.498;32.260;2023-02-28T01:17:17;-0.30;99.90
45319;DHT22;31057;48.498;32.260;2023-02-28T01:19:19;-0.30;99.90
45319;DHT22;31057;48.498;32.260;2023-02-28T01:21:23;-0.30;99.90
45319;DHT22;31057;48.498;32.260;2023-02-28T01:23:25;-0.30;99.90
45319;DHT22;31057;48.498;32.260;2023-02-28T01:25:27;-0.30;99.90
45319;DHT22;31057;48.498;32.260;2023-02-28T01:27:28;-0.30;99.90
45319;DHT22;31057;48.498;32.260;2023-02-28T01:29:30;-0.30;99.90
45319;DHT22;31057;48.498;32.260;2023-02-28T01:31:32;-0.30;99.90
45319;DHT22;31057;48.498;32.260;2023-02-28T01:33:35;-0.30;99.90
45319;DHT22;31057;48.498;32.260;2023-02-28T01:35:37;-0.30;99.90
45319;DHT22;31057;48.498;32.260;2023-02-28T01:37:38;-0.30;99.90
45319;DHT22;31057;48.498;32.260;2023-02-28T01:39:42;-0.30;99.90
45319;DHT22;31057;48.498;32.260;2023-02-28T01:41:44;-0.30;99.90
45319;DHT22;31057;48.498;32.260;2023-02-28T01:45:48;-0.30;99.90
45319;DHT22;31057;48.498;32.260;2023-02-28T01:47:50;-0.30;99.90
45319;DHT22;31057;48.498;32.260;2023-02-28T01:49:54;-0.30;99.90
45319;DHT22;31057;48.498;32.260;2023-02-28T01:51:56;-0.30;99.90
45319;DHT22;31057;48.498;32.260;2023-02-28T01:54:02;-0.30;99.90
45319;DHT22;31057;48.498;32.260;2023-02-28T01:56:05;-0.30;99.90
45319;DHT22;31057;48.498;32.260;2023-02-28T01:58:08;-0.40;99.90
45319;DHT22;31057;48.498;32.260;2023-02-28T02:00:11;-0.30;99.90
45319;DHT22;31057;48.498;32.260;2023-02-28T02:02:15;-0.30;99.90
45319;DHT22;31057;48.498;32.260;2023-02-28T02:04:17;-0.40;99.90
45319;DHT22;31057;48.498;32.260;2023-02-28T02:06:22;-0.40;99.90
45319;DHT22;31057;48.498;32.260;2023-02-28T02:08:25;-0.40;99.90
45319;DHT22;31057;48.498;32.260;2023-02-28T02:10:32;-0.40;99.90
45319;DHT22;31057;48.498;32.260;2023-02-28T02:15:14;-0.40;99.90
45319;DHT22;31057;48.498;32.260;2023-02-28T02:17:12;-0.40;99.90
45319;DHT22;31057;48.498;32.260;2023-02-28T02:27:53;-0.50;99.90
45319;DHT22;31057;48.498;32.260;2023-02-28T02:36:56;-0.50;99.90
45319;DHT22;31057;48.498;32.260;2023-02-28T02:43:01;-0.30;99.90
45319;DHT22;31057;48.498;32.260;2023-02-28T02:45:08;-0.50;99.90
45319;DHT22;31057;48.498;32.260;2023-02-28T02:47:12;-0.50;99.90
45319;DHT22;31057;48.498;32.260;2023-02-28T02:49:17;-0.50;99.90
45319;DHT22;31057;48.498;32.260;2023-02-28T02:51:21;-0.60;99.90
45319;DHT22;31057;48.498;32.260;2023-02-28T02:53:30;-0.60;99.90
45319;DHT22;31057;48.498;32.260;2023-02-28T02:55:36;-0.50;99.90
45319;DHT22;31057;48.498;32.260;2023-02-28T02:57:44;-0.40;99.90
45319;DHT22;31057;48.498;32.260;2023-02-28T02:59:47;-0.50;99.90
45319;DHT22;31057;48.498;32.260;2023-02-28T03:01:55;-0.60;99.90
45319;DHT22;31057;48.498;32.260;2023-02-28T03:03:59;-0.60;99.90
45319;DHT22;31057;48.498;32.260;2023-02-28T03:06:02;-0.60;99.90
45319;DHT22;31057;48.498;32.260;2023-02-28T03:08:05;-0.60;99.90
45319;DHT22;31057;48.498;32.260;2023-02-28T03:12:40;-0.60;99.90
45319;DHT22;31057;48.498;32.260;2023-02-28T03:15:04;-0.70;99.90
45319;DHT22;31057;48.498;32.260;2023-02-28T03:18:12;-0.70;99.90
45319;DHT22;31057;48.498;32.260;2023-02-28T03:26:43;-0.70;99.90
45319;DHT22;31057;48.498;32.260;2023-02-28T03:33:03;-0.80;99.90
45319;DHT22;31057;48.498;32.260;2023-02-28T03:35:08;-0.60;99.90
45319;DHT22;31057;48.498;32.260;2023-02-28T03:37:12;-0.70;99.90
45319;DHT22;31057;48.498;32.260;2023-02-28T03:39:16;-0.80;99.90
45319;DHT22;31057;48.498;32.260;2023-02-28T03:41:19;-0.70;99.90
45319;DHT22;31057;48.498;32.260;2023-02-28T03:43:23;-0.70;99.90
45319;DHT22;31057;48.498;32.260;2023-02-28T03:45:27;-0.70;99.90
45319;DHT22;31057;48.498;32.260;2023-02-28T03:48:32;-0.70;99.90
45319;DHT22;31057;48.498;32.260;2023-02-28T03:50:03;-0.60;99.90
45319;DHT22;31057;48.498;32.260;2023-02-28T03:52:08;-0.60;99.90
45319;DHT22;31057;48.498;32.260;2023-02-28T03:54:12;-0.80;99.90
45319;DHT22;31057;48.498;32.260;2023-02-28T03:56:22;-0.80;99.90
45319;DHT22;31057;48.498;32.260;2023-02-28T04:00:31;-0.90;99.90
45319;DHT22;31057;48.498;32.260;2023-02-28T04:02:35;-0.90;99.90
45319;DHT22;31057;48.498;32.260;2023-02-28T04:04:37;-1.00;99.90
45319;DHT22;31057;48.498;32.260;2023-02-28T04:06:39;-1.00;99.90
45319;DHT22;31057;48.498;32.260;2023-02-28T04:08:41;-1.00;99.90
45319;DHT22;31057;48.498;32.260;2023-02-28T04:10:43;-1.00;99.90
45319;DHT22;31057;48.498;32.260;2023-02-28T04:12:47;-1.10;99.90
45319;DHT22;31057;48.498;32.260;2023-02-28T04:14:49;-1.10;99.90
45319;DHT22;31057;48.498;32.260;2023-02-28T04:16:51;-1.10;99.90
45319;DHT22;31057;48.498;32.260;2023-02-28T04:18:53;-1.10;99.90
45319;DHT22;31057;48.498;32.260;2023-02-28T04:20:59;-1.10;99.90
45319;DHT22;31057;48.498;32.260;2023-02-28T04:23:01;-1.10;99.90
45319;DHT22;31057;48.498;32.260;2023-02-28T04:25:03;-1.10;99.90
45319;DHT22;31057;48.498;32.260;2023-02-28T04:27:05;-1.00;99.90
45319;DHT22;31057;48.498;32.260;2023-02-28T04:29:07;-1.00;99.90
45319;DHT22;31057;48.498;32.260;2023-02-28T04:31:08;-1.10;99.90
45319;DHT22;31057;48.498;32.260;2023-02-28T04:33:11;-1.10;99.90
45319;DHT22;31057;48.498;32.260;2023-02-28T04:35:13;-1.10;99.90
45319;DHT22;31057;48.498;32.260;2023-02-28T04:37:14;-1.10;99.90
45319;DHT22;31057;48.498;32.260;2023-02-28T04:39:16;-1.10;99.90
45319;DHT22;31057;48.498;32.260;2023-02-28T04:41:20;-1.00;99.90
45319;DHT22;31057;48.498;32.260;2023-02-28T04:43:22;-1.10;99.90
45319;DHT22;31057;48.498;32.260;2023-02-28T04:45:24;-1.10;99.90
45319;DHT22;31057;48.498;32.260;2023-02-28T04:47:25;-1.10;99.90
45319;DHT22;31057;48.498;32.260;2023-02-28T04:49:27;-1.20;99.90
45319;DHT22;31057;48.498;32.260;2023-02-28T04:51:29;-1.20;99.90
45319;DHT22;31057;48.498;32.260;2023-02-28T04:53:32;-1.20;99.90
45319;DHT22;31057;48.498;32.260;2023-02-28T04:55:34;-1.20;99.90
45319;DHT22;31057;48.498;32.260;2023-02-28T04:57:36;-1.20;99.90
45319;DHT22;31057;48.498;32.260;2023-02-28T04:59:38;-1.20;99.90
45319;DHT22;31057;48.498;32.260;2023-02-28T05:01:40;-1.20;99.90
45319;DHT22;31057;48.498;32.260;2023-02-28T05:03:42;-1.20;99.90
45319;DHT22;31057;48.498;32.260;2023-02-28T05:05:44;-1.30;99.90
45319;DHT22;31057;48.498;32.260;2023-02-28T05:07:46;-1.30;99.90
45319;DHT22;31057;48.498;32.260;2023-02-28T05:09:48;-1.30;99.90
45319;DHT22;31057;48.498;32.260;2023-02-28T05:11:49;-1.20;99.90
45319;DHT22;31057;48.498;32.260;2023-02-28T05:13:51;-1.20;99.90
45319;DHT22;31057;48.498;32.260;2023-02-28T05:15:53;-1.00;99.90
45319;DHT22;31057;48.498;32.260;2023-02-28T05:17:55;-1.00;99.90
45319;DHT22;31057;48.498;32.260;2023-02-28T05:19:57;-1.00;99.90
45319;DHT22;31057;48.498;32.260;2023-02-28T05:22:15;-1.00;99.90
45319;DHT22;31057;48.498;32.260;2023-02-28T05:24:18;-1.10;99.90
45319;DHT22;31057;48.498;32.260;2023-02-28T05:26:29;-1.00;99.90
45319;DHT22;31057;48.498;32.260;2023-02-28T05:28:31;-1.00;99.90
45319;DHT22;31057;48.498;32.260;2023-02-28T05:30:33;-1.10;99.90
45319;DHT22;31057;48.498;32.260;2023-02-28T05:32:35;-1.10;99.90
45319;DHT22;31057;48.498;32.260;2023-02-28T05:34:40;-1.00;99.90
45319;DHT22;31057;48.498;32.260;2023-02-28T05:36:42;-1.20;99.90
45319;DHT22;31057;48.498;32.260;2023-02-28T05:38:46;-1.30;99.90
45319;DHT22;31057;48.498;32.260;2023-02-28T05:40:47;-1.20;99.90
45319;DHT22;31057;48.498;32.260;2023-02-28T05:42:50;-1.20;99.90
45319;DHT22;31057;48.498;32.260;2023-02-28T05:44:51;-1.30;99.90
45319;DHT22;31057;48.498;32.260;2023-02-28T05:46:53;-1.30;99.90
45319;DHT22;31057;48.498;32.260;2023-02-28T05:48:55;-1.20;99.90
45319;DHT22;31057;48.498;32.260;2023-02-28T05:50:59;-1.30;99.90
45319;DHT22;31057;48.498;32.260;2023-02-28T05:53:01;-1.30;99.90
45319;DHT22;31057;48.498;32.260;2023-02-28T05:55:03;-1.40;99.90
45319;DHT22;31057;48.498;32.260;2023-02-28T05:57:05;-1.40;99.90
45319;DHT22;31057;48.498;32.260;2023-02-28T05:59:23;-1.40;99.90
45319;DHT22;31057;48.498;32.260;2023-02-28T06:03:27;-1.40;99.90
45319;DHT22;31057;48.498;32.260;2023-02-28T06:05:29;-1.50;99.90
45319;DHT22;31057;48.498;32.260;2023-02-28T06:07:30;-1.40;99.90
45319;DHT22;31057;48.498;32.260;2023-02-28T06:09:33;-1.50;99.90
45319;DHT22;31057;48.498;32.260;2023-02-28T06:11:34;-1.40;99.90
45319;DHT22;31057;48.498;32.260;2023-02-28T06:13:36;-1.40;99.90
45319;DHT22;31057;48.498;32.260;2023-02-28T06:15:38;-1.40;99.90
45319;DHT22;31057;48.498;32.260;2023-02-28T06:17:43;-1.30;99.90
45319;DHT22;31057;48.498;32.260;2023-02-28T06:19:45;-1.40;99.90
45319;DHT22;31057;48.498;32.260;2023-02-28T06:21:48;-1.30;99.90
45319;DHT22;31057;48.498;32.260;2023-02-28T06:23:50;-1.10;99.90
45319;DHT22;31057;48.498;32.260;2023-02-28T06:25:52;-1.30;99.90
45319;DHT22;31057;48.498;32.260;2023-02-28T06:27:55;-1.20;99.90
45319;DHT22;31057;48.498;32.260;2023-02-28T06:29:58;-1.20;99.90
45319;DHT22;31057;48.498;32.260;2023-02-28T06:32:00;-1.30;99.90
45319;DHT22;31057;48.498;32.260;2023-02-28T06:34:02;-1.10;99.90
45319;DHT22;31057;48.498;32.260;2023-02-28T06:36:04;-1.00;99.90
45319;DHT22;31057;48.498;32.260;2023-02-28T06:38:06;-1.10;99.90
45319;DHT22;31057;48.498;32.260;2023-02-28T06:40:08;-1.20;99.90
45319;DHT22;31057;48.498;32.260;2023-02-28T06:42:10;-1.20;99.90
45319;DHT22;31057;48.498;32.260;2023-02-28T06:44:12;-1.00;99.90
45319;DHT22;31057;48.498;32.260;2023-02-28T06:46:14;-1.00;99.90
45319;DHT22;31057;48.498;32.260;2023-02-28T06:48:16;-1.00;99.90
45319;DHT22;31057;48.498;32.260;2023-02-28T06:50:18;-0.90;99.90
45319;DHT22;31057;48.498;32.260;2023-02-28T06:52:21;-1.00;99.90
45319;DHT22;31057;48.498;32.260;2023-02-28T06:54:23;-1.00;99.90
45319;DHT22;31057;48.498;32.260;2023-02-28T06:56:25;-0.90;99.90
45319;DHT22;31057;48.498;32.260;2023-02-28T06:58:27;-1.10;99.90
45319;DHT22;31057;48.498;32.260;2023-02-28T07:00:29;-1.00;99.90
45319;DHT22;31057;48.498;32.260;2023-02-28T07:02:31;-1.00;99.90
45319;DHT22;31057;48.498;32.260;2023-02-28T07:04:33;-0.90;99.90
45319;DHT22;31057;48.498;32.260;2023-02-28T07:06:35;-0.50;99.90
45319;DHT22;31057;48.498;32.260;2023-02-28T07:08:37;-0.80;99.90
45319;DHT22;31057;48.498;32.260;2023-02-28T07:10:39;-0.80;99.90
45319;DHT22;31057;48.498;32.260;2023-02-28T07:12:41;-0.70;99.90
45319;DHT22;31057;48.498;32.260;2023-02-28T07:14:43;-0.60;99.90
45319;DHT22;31057;48.498;32.260;2023-02-28T07:16:44;-0.50;99.90
45319;DHT22;31057;48.498;32.260;2023-02-28T07:18:47;-0.40;99.90
45319;DHT22;31057;48.498;32.260;2023-02-28T07:20:49;-0.60;99.90
45319;DHT22;31057;48.498;32.260;2023-02-28T07:22:51;-0.60;99.90
45319;DHT22;31057;48.498;32.260;2023-02-28T07:24:57;-0.80;99.90
45319;DHT22;31057;48.498;32.260;2023-02-28T07:26:59;-0.90;99.90
45319;DHT22;31057;48.498;32.260;2023-02-28T07:29:01;-0.70;99.90
45319;DHT22;31057;48.498;32.260;2023-02-28T07:31:04;-0.70;99.90
45319;DHT22;31057;48.498;32.260;2023-02-28T07:33:06;-0.90;99.90
45319;DHT22;31057;48.498;32.260;2023-02-28T07:35:08;-0.90;99.90
45319;DHT22;31057;48.498;32.260;2023-02-28T07:37:10;-1.10;99.90
45319;DHT22;31057;48.498;32.260;2023-02-28T07:39:12;-1.00;99.90
45319;DHT22;31057;48.498;32.260;2023-02-28T07:41:14;-1.10;99.90
45319;DHT22;31057;48.498;32.260;2023-02-28T07:43:16;-0.90;99.90
45319;DHT22;31057;48.498;32.260;2023-02-28T07:45:18;-1.00;99.90
45319;DHT22;31057;48.498;32.260;2023-02-28T07:47:20;-0.90;99.90
45319;DHT22;31057;48.498;32.260;2023-02-28T07:49:25;-0.90;99.90
45319;DHT22;31057;48.498;32.260;2023-02-28T07:51:27;-0.90;99.90
45319;DHT22;31057;48.498;32.260;2023-02-28T07:53:29;-1.00;99.90
45319;DHT22;31057;48.498;32.260;2023-02-28T07:58:41;-0.80;99.90
45319;DHT22;31057;48.498;32.260;2023-02-28T08:00:42;-0.50;99.90
45319;DHT22;31057;48.498;32.260;2023-02-28T08:02:44;-0.90;99.90
45319;DHT22;31057;48.498;32.260;2023-02-28T08:04:46;-0.70;99.90
45319;DHT22;31057;48.498;32.260;2023-02-28T08:06:49;-0.70;99.90
45319;DHT22;31057;48.498;32.260;2023-02-28T08:08:53;-0.80;99.90
45319;DHT22;31057;48.498;32.260;2023-02-28T08:10:55;-1.00;99.90
45319;DHT22;31057;48.498;32.260;2023-02-28T08:12:57;-1.00;99.90
45319;DHT22;31057;48.498;32.260;2023-02-28T08:14:59;-1.10;99.90
45319;DHT22;31057;48.498;32.260;2023-02-28T08:17:01;-1.10;99.90
45319;DHT22;31057;48.498;32.260;2023-02-28T08:19:03;-0.90;99.90
45319;DHT22;31057;48.498;32.260;2023-02-28T08:21:06;-0.70;99.90
45319;DHT22;31057;48.498;32.260;2023-02-28T08:23:07;-0.80;99.90
45319;DHT22;31057;48.498;32.260;2023-02-28T08:25:09;-0.90;99.90
45319;DHT22;31057;48.498;32.260;2023-02-28T08:27:11;-0.80;99.90
45319;DHT22;31057;48.498;32.260;2023-02-28T08:29:13;-0.70;99.90
45319;DHT22;31057;48.498;32.260;2023-02-28T08:31:15;-0.50;99.90
45319;DHT22;31057;48.498;32.260;2023-02-28T08:33:17;-0.70;99.90
45319;DHT22;31057;48.498;32.260;2023-02-28T08:35:19;-0.70;99.90
45319;DHT22;31057;48.498;32.260;2023-02-28T08:37:20;-0.70;99.90
45319;DHT22;31057;48.498;32.260;2023-02-28T08:39:22;-0.60;99.90
45319;DHT22;31057;48.498;32.260;2023-02-28T08:41:24;-0.60;99.90
45319;DHT22;31057;48.498;32.260;2023-02-28T08:43:28;-0.50;99.90
45319;DHT22;31057;48.498;32.260;2023-02-28T08:45:36;-0.60;99.90
45319;DHT22;31057;48.498;32.260;2023-02-28T08:47:38;-0.90;99.90
45319;DHT22;31057;48.498;32.260;2023-02-28T08:49:42;-0.80;99.90
45319;DHT22;31057;48.498;32.260;2023-02-28T08:51:43;-1.00;99.90
45319;DHT22;31057;48.498;32.260;2023-02-28T08:53:45;-0.80;99.90
45319;DHT22;31057;48.498;32.260;2023-02-28T08:55:47;-0.60;99.90
45319;DHT22;31057;48.498;32.260;2023-02-28T08:57:57;-0.50;99.90
45319;DHT22;31057;48.498;32.260;2023-02-28T08:59:59;-0.70;99.90
45319;DHT22;31057;48.498;32.260;2023-02-28T09:02:03;-0.60;99.90
45319;DHT22;31057;48.498;32.260;2023-02-28T09:04:04;-0.50;99.90
45319;DHT22;31057;48.498;32.260;2023-02-28T09:06:09;-0.30;99.90
45319;DHT22;31057;48.498;32.260;2023-02-28T09:08:11;-0.50;99.90
45319;DHT22;31057;48.498;32.260;2023-02-28T09:10:12;-0.40;99.90
45319;DHT22;31057;48.498;32.260;2023-02-28T09:12:14;-0.40;99.90
45319;DHT22;31057;48.498;32.260;2023-02-28T09:14:16;-0.70;99.90
45319;DHT22;31057;48.498;32.260;2023-02-28T09:16:19;-0.80;99.90
45319;DHT22;31057;48.498;32.260;2023-02-28T09:18:20;-0.70;99.90
45319;DHT22;31057;48.498;32.260;2023-02-28T09:20:22;-0.40;99.90
45319;DHT22;31057;48.498;32.260;2023-02-28T09:22:31;-0.40;99.90
45319;DHT22;31057;48.498;32.260;2023-02-28T09:24:33;-0.50;99.90
45319;DHT22;31057;48.498;32.260;2023-02-28T09:26:37;-0.60;99.90
45319;DHT22;31057;48.498;32.260;2023-02-28T09:28:56;-0.70;99.90
45319;DHT22;31057;48.498;32.260;2023-02-28T09:31:00;-0.60;99.90
45319;DHT22;31057;48.498;32.260;2023-02-28T09:33:02;-0.50;99.90
45319;DHT22;31057;48.498;32.260;2023-02-28T09:35:05;-0.40;99.90
45319;DHT22;31057;48.498;32.260;2023-02-28T09:37:10;-0.60;99.90
45319;DHT22;31057;48.498;32.260;2023-02-28T09:39:12;-0.80;99.90
45319;DHT22;31057;48.498;32.260;2023-02-28T09:41:21;-0.50;99.90
45319;DHT22;31057;48.498;32.260;2023-02-28T09:43:26;-0.40;99.90
45319;DHT22;31057;48.498;32.260;2023-02-28T09:45:36;-0.40;99.90
45319;DHT22;31057;48.498;32.260;2023-02-28T09:47:40;-0.30;99.90
45319;DHT22;31057;48.498;32.260;2023-02-28T09:49:48;-0.10;99.90
45319;DHT22;31057;48.498;32.260;2023-02-28T09:53:56;0.20;99.90
45319;DHT22;31057;48.498;32.260;2023-02-28T09:56:04;0.20;99.90
45319;DHT22;31057;48.498;32.260;2023-02-28T09:58:16;-0.30;99.90
45319;DHT22;31057;48.498;32.260;2023-02-28T10:00:24;-0.20;99.90
45319;DHT22;31057;48.498;32.260;2023-02-28T10:04:59;0.20;99.90
45319;DHT22;31057;48.498;32.260;2023-02-28T10:07:05;-0.30;99.90
45319;DHT22;31057;48.498;32.260;2023-02-28T10:09:25;-0.50;99.90
45319;DHT22;31057;48.498;32.260;2023-02-28T10:11:28;-0.50;99.90
45319;DHT22;31057;48.498;32.260;2023-02-28T10:13:39;-0.50;99.90
45319;DHT22;31057;48.498;32.260;2023-02-28T10:15:44;-0.30;99.90
45319;DHT22;31057;48.498;32.260;2023-02-28T10:17:47;-0.10;99.90
45319;DHT22;31057;48.498;32.260;2023-02-28T10:22:15;-0.50;99.90
45319;DHT22;31057;48.498;32.260;2023-02-28T10:24:20;-0.40;99.90
45319;DHT22;31057;48.498;32.260;2023-02-28T10:26:26;-0.60;99.90
45319;DHT22;31057;48.498;32.260;2023-02-28T10:28:30;-0.70;99.90
45319;DHT22;31057;48.498;32.260;2023-02-28T10:30:32;-0.50;99.90
45319;DHT22;31057;48.498;32.260;2023-02-28T10:32:34;0.00;99.90
45319;DHT22;31057;48.498;32.260;2023-02-28T10:34:37;-0.30;99.90
45319;DHT22;31057;48.498;32.260;2023-02-28T10:36:39;0.00;99.90
45319;DHT22;31057;48.498;32.260;2023-02-28T10:38:47;-0.10;99.90
45319;DHT22;31057;48.498;32.260;2023-02-28T10:41:32;-0.20;99.90
45319;DHT22;31057;48.498;32.260;2023-02-28T10:43:25;-0.20;99.90
45319;DHT22;31057;48.498;32.260;2023-02-28T10:45:31;-0.20;99.90
45319;DHT22;31057;48.498;32.260;2023-02-28T10:47:34;-0.10;99.90
45319;DHT22;31057;48.498;32.260;2023-02-28T10:49:38;-0.10;99.90
45319;DHT22;31057;48.498;32.260;2023-02-28T10:51:49;-0.30;99.90
45319;DHT22;31057;48.498;32.260;2023-02-28T10:53:54;0.20;99.90
45319;DHT22;31057;48.498;32.260;2023-02-28T10:56:05;0.30;99.90
45319;DHT22;31057;48.498;32.260;2023-02-28T10:58:21;0.40;99.90
45319;DHT22;31057;48.498;32.260;2023-02-28T11:00:24;0.30;99.90
45319;DHT22;31057;48.498;32.260;2023-02-28T11:04:32;0.10;99.90
45319;DHT22;31057;48.498;32.260;2023-02-28T11:06:37;0.00;99.90
45319;DHT22;31057;48.498;32.260;2023-02-28T11:08:46;0.00;99.90
45319;DHT22;31057;48.498;32.260;2023-02-28T11:10:54;0.20;99.90
45319;DHT22;31057;48.498;32.260;2023-02-28T11:12:56;0.20;99.90
45319;DHT22;31057;48.498;32.260;2023-02-28T11:18:18;0.00;99.90
45319;DHT22;31057;48.498;32.260;2023-02-28T11:20:21;0.00;99.90
45319;DHT22;31057;48.498;32.260;2023-02-28T11:22:25;0.40;99.90
45319;DHT22;31057;48.498;32.260;2023-02-28T11:33:54;-0.10;99.90
45319;DHT22;31057;48.498;32.260;2023-02-28T11:36:01;-0.30;99.90
45319;DHT22;31057;48.498;32.260;2023-02-28T12:02:38;0.20;99.90
45319;DHT22;31057;48.498;32.260;2023-02-28T12:07:34;0.10;99.90
45319;DHT22;31057;48.498;32.260;2023-02-28T12:10:00;0.40;99.90
45319;DHT22;31057;48.498;32.260;2023-02-28T12:16:19;0.10;99.90
45319;DHT22;31057;48.498;32.260;2023-02-28T12:22:54;0.20;99.90
45319;DHT22;31057;48.498;32.260;2023-02-28T12:27:10;0.10;99.90
45319;DHT22;31057;48.498;32.260;2023-02-28T12:29:19;0.50;99.90
45319;DHT22;31057;48.498;32.260;2023-02-28T12:31:33;0.40;99.90
45319;DHT22;31057;48.498;32.260;2023-02-28T12:33:39;0.30;99.90
45319;DHT22;31057;48.498;32.260;2023-02-28T12:35:55;0.40;99.90
45319;DHT22;31057;48.498;32.260;2023-02-28T12:40:09;0.30;99.90
45319;DHT22;31057;48.498;32.260;2023-02-28T12:42:13;0.20;99.90
45319;DHT22;31057;48.498;32.260;2023-02-28T12:44:32;0.20;99.90
45319;DHT22;31057;48.498;32.260;2023-02-28T12:47:09;0.10;99.90
45319;DHT22;31057;48.498;32.260;2023-02-28T12:49:05;0.30;99.90
45319;DHT22;31057;48.498;32.260;2023-02-28T12:51:07;0.10;99.90
45319;DHT22;31057;48.498;32.260;2023-02-28T12:53:13;0.30;99.90
45319;DHT22;31057;48.498;32.260;2023-02-28T12:57:51;0.20;99.90
45319;DHT22;31057;48.498;32.260;2023-02-28T12:59:59;0.30;99.90
45319;DHT22;31057;48.498;32.260;2023-02-28T13:02:09;0.20;99.90
45319;DHT22;31057;48.498;32.260;2023-02-28T13:04:33;0.00;99.90
45319;DHT22;31057;48.498;32.260;2023-02-28T13:10:44;0.10;99.90
45319;DHT22;31057;48.498;32.260;2023-02-28T13:12:47;0.00;99.90
45319;DHT22;31057;48.498;32.260;2023-02-28T13:14:49;-0.10;99.90
45319;DHT22;31057;48.498;32.260;2023-02-28T13:19:17;0.30;99.90
45319;DHT22;31057;48.498;32.260;2023-02-28T13:21:26;0.00;99.90
45319;DHT22;31057;48.498;32.260;2023-02-28T13:27:41;0.00;99.90
45319;DHT22;31057;48.498;32.260;2023-02-28T13:29:44;0.00;99.90
45319;DHT22;31057;48.498;32.260;2023-02-28T13:34:14;-0.10;99.90
45319;DHT22;31057;48.498;32.260;2023-02-28T13:38:31;-0.10;99.90
45319;DHT22;31057;48.498;32.260;2023-02-28T13:43:01;-0.10;99.90
45319;DHT22;31057;48.498;32.260;2023-02-28T13:51:43;0.00;99.90
45319;DHT22;31057;48.498;32.260;2023-02-28T13:54:05;-0.20;99.90
45319;DHT22;31057;48.498;32.260;2023-02-28T14:05:12;-0.20;99.90
45319;DHT22;31057;48.498;32.260;2023-02-28T14:07:25;-0.10;99.90
45319;DHT22;31057;48.498;32.260;2023-02-28T14:09:32;-0.10;99.90
45319;DHT22;31057;48.498;32.260;2023-02-28T14:11:36;0.10;99.90
45319;DHT22;31057;48.498;32.260;2023-02-28T14:13:42;0.00;99.90
45319;DHT22;31057;48.498;32.260;2023-02-28T14:15:49;0.00;99.90
45319;DHT22;31057;48.498;32.260;2023-02-28T14:17:55;-0.10;99.90
45319;DHT22;31057;48.498;32.260;2023-02-28T14:19:58;-0.20;99.90
45319;DHT22;31057;48.498;32.260;2023-02-28T14:22:13;-0.20;99.90
45319;DHT22;31057;48.498;32.260;2023-02-28T14:37:44;0.20;99.90
45319;DHT22;31057;48.498;32.260;2023-02-28T14:39:46;1.10;99.90
45319;DHT22;31057;48.498;32.260;2023-02-28T14:41:47;0.50;99.90
45319;DHT22;31057;48.498;32.260;2023-02-28T14:43:51;0.70;99.90
45319;DHT22;31057;48.498;32.260;2023-02-28T14:46:02;0.70;99.90
45319;DHT22;31057;48.498;32.260;2023-02-28T14:48:08;0.10;99.90
45319;DHT22;31057;48.498;32.260;2023-02-28T14:50:17;-0.20;99.90
45319;DHT22;31057;48.498;32.260;2023-02-28T14:52:21;0.60;99.90
45319;DHT22;31057;48.498;32.260;2023-02-28T14:54:23;1.50;99.90
45319;DHT22;31057;48.498;32.260;2023-02-28T14:56:35;1.50;99.90
45319;DHT22;31057;48.498;32.260;2023-02-28T14:58:40;0.30;99.90
45319;DHT22;31057;48.498;32.260;2023-02-28T15:00:49;0.00;99.90
45319;DHT22;31057;48.498;32.260;2023-02-28T15:02:51;-0.10;99.90
45319;DHT22;31057;48.498;32.260;2023-02-28T15:07:09;0.50;99.90
45319;DHT22;31057;48.498;32.260;2023-02-28T15:09:15;0.50;99.90
45319;DHT22;31057;48.498;32.260;2023-02-28T15:11:17;0.10;99.90
45319;DHT22;31057;48.498;32.260;2023-02-28T15:13:47;-0.10;99.90
45319;DHT22;31057;48.498;32.260;2023-02-28T15:18:03;-0.30;99.90
45319;DHT22;31057;48.498;32.260;2023-02-28T15:20:10;-0.40;99.90
45319;DHT22;31057;48.498;32.260;2023-02-28T15:22:14;-0.40;99.90
45319;DHT22;31057;48.498;32.260;2023-02-28T15:24:30;-0.50;99.90
45319;DHT22;31057;48.498;32.260;2023-02-28T15:26:37;-0.60;99.90
45319;DHT22;31057;48.498;32.260;2023-02-28T15:28:40;-0.60;99.90
45319;DHT22;31057;48.498;32.260;2023-02-28T15:30:50;-0.50;99.90
45319;DHT22;31057;48.498;32.260;2023-02-28T15:33:07;-0.60;99.90
45319;DHT22;31057;48.498;32.260;2023-02-28T15:39:31;-0.70;99.90
45319;DHT22;31057;48.498;32.260;2023-02-28T15:41:42;-0.70;99.90